createdAt,value
2023-03-22T00:03:30.548Z,70.83
2023-03-22T00:07:30.768Z,71.75
2023-03-22T00:11:30.962Z,71.94
2023-03-22T00:15:31.187Z,71.51
2023-03-22T00:19:31.418Z,68.91
2023-03-22T00:23:31.367Z,73.20
2023-03-22T00:27:31.365Z,72.16
2023-03-22T00:31:31.338Z,71.54
2023-03-22T00:35:31.272Z,71.49
2023-03-22T00:39:31.229Z,76.15
2023-03-22T00:43:31.201Z,72.09
2023-03-22T00:47:31.189Z,71.07
2023-03-22T00:51:31.142Z,70.96
2023-03-22T00:55:31.086Z,75.87
2023-03-22T00:59:31.061Z,70.64
2023-03-22T01:03:31.055Z,74.13
2023-03-22T01:07:31.028Z,72.63
2023-03-22T01:11:30.951Z,68.95
2023-03-22T01:15:30.916Z,68.41
2023-03-22T01:19:30.885Z,69.73
2023-03-22T01:23:30.866Z,71.00
2023-03-22T01:27:30.844Z,70.94
2023-03-22T01:31:30.753Z,69.82
2023-03-22T01:35:30.840Z,71.34
2023-03-22T01:39:30.661Z,70.44
2023-03-22T01:43:30.669Z,73.20
2023-03-22T01:47:30.677Z,69.63
2023-03-22T01:51:30.600Z,72.46
2023-03-22T01:55:30.555Z,73.23
2023-03-22T01:59:30.557Z,75.83
2023-03-22T02:03:30.461Z,70.71
2023-03-22T02:07:30.423Z,72.04
2023-03-22T02:11:30.422Z,69.72
2023-03-22T02:15:30.347Z,68.97
2023-03-22T02:19:30.551Z,71.71
2023-03-22T02:23:30.525Z,69.62
2023-03-22T02:27:30.437Z,70.32
2023-03-22T02:31:30.465Z,71.80
2023-03-22T02:35:30.402Z,70.37
2023-03-22T02:39:30.339Z,69.61
2023-03-22T02:43:30.801Z,74.00
2023-03-22T02:47:30.271Z,71.89
2023-03-22T02:51:30.213Z,69.47
2023-03-22T02:55:30.204Z,70.45
2023-03-22T02:59:30.275Z,69.45
2023-03-22T03:03:30.207Z,68.34
2023-03-22T03:07:30.408Z,68.99
2023-03-22T03:11:32.316Z,68.90
2023-03-22T03:15:30.703Z,72.29
2023-03-22T03:19:30.905Z,67.41
2023-03-22T03:23:30.992Z,70.85
2023-03-22T03:27:31.158Z,69.88
2023-03-22T03:31:31.376Z,69.16
2023-03-22T03:35:31.835Z,70.78
2023-03-22T03:39:31.633Z,71.30
2023-03-22T03:43:31.764Z,71.85
2023-03-22T03:47:32.300Z,71.51
2023-03-22T03:51:31.964Z,68.49
2023-03-22T03:55:32.293Z,66.14
2023-03-22T03:59:32.114Z,70.24
2023-03-22T04:04:08.781Z,25.00
2023-03-22T04:08:08.716Z,27.32
2023-03-22T04:12:08.692Z,28.56
2023-03-22T04:16:08.677Z,28.29
2023-03-22T04:20:08.668Z,26.95
2023-03-22T04:24:08.595Z,27.65
2023-03-22T04:28:08.528Z,27.22
2023-03-22T04:32:09.465Z,28.34
2023-03-22T04:36:08.456Z,25.73
2023-03-22T04:40:08.441Z,28.50
2023-03-22T04:44:08.457Z,30.25
2023-03-22T04:48:08.396Z,30.43
2023-03-22T04:52:08.319Z,27.77
2023-03-22T04:56:08.423Z,31.11
2023-03-22T05:00:08.265Z,29.75
2023-03-22T05:04:08.212Z,25.28
2023-03-22T05:08:08.202Z,26.41
2023-03-22T05:12:08.199Z,26.05
2023-03-22T05:16:08.162Z,28.45
2023-03-22T05:20:08.079Z,23.90
2023-03-22T05:24:08.089Z,25.99
2023-03-22T05:28:08.104Z,27.08
2023-03-22T05:32:08.070Z,28.11
2023-03-22T05:36:08.068Z,29.82
2023-03-22T05:40:08.493Z,27.63
2023-03-22T05:44:08.492Z,30.25
2023-03-22T05:48:08.102Z,30.64
2023-03-22T05:52:08.033Z,31.97
2023-03-22T05:56:07.966Z,33.41
2023-03-22T06:00:07.996Z,31.15
2023-03-22T06:04:08.037Z,32.61
2023-03-22T06:08:07.984Z,36.39
2023-03-22T06:12:07.977Z,38.51
2023-03-22T06:16:08.001Z,39.64
2023-03-22T06:20:08.049Z,40.09
2023-03-22T06:24:08.535Z,38.87
2023-03-22T06:28:08.872Z,40.61
2023-03-22T06:32:08.030Z,33.52
2023-03-22T06:36:08.062Z,43.28
2023-03-22T06:40:08.430Z,41.06
2023-03-22T06:44:08.550Z,43.90
2023-03-22T06:48:08.581Z,73.65
2023-03-22T06:52:08.981Z,89.49
2023-03-22T06:56:08.767Z,98.13
2023-03-22T07:00:08.529Z,97.40
2023-03-22T07:04:08.706Z,96.57
2023-03-22T07:08:08.362Z,102.05
2023-03-22T07:12:08.918Z,106.78
2023-03-22T07:16:08.533Z,107.20
2023-03-22T07:20:08.460Z,101.07
2023-03-22T07:24:08.241Z,97.71
2023-03-22T07:28:08.415Z,98.27
2023-03-22T07:32:08.752Z,93.65
2023-03-22T07:36:08.534Z,91.16
2023-03-22T07:40:08.350Z,96.12
2023-03-22T07:44:17.600Z,97.41
2023-03-22T07:48:10.238Z,101.71
2023-03-22T07:52:10.337Z,104.31
2023-03-22T07:56:08.445Z,103.02
2023-03-22T08:00:08.632Z,99.31
2023-03-22T08:04:08.816Z,99.37
2023-03-22T08:08:08.991Z,98.94
2023-03-22T08:12:09.124Z,88.88
2023-03-22T08:16:09.312Z,82.89
2023-03-22T08:20:09.392Z,77.85
2023-03-22T08:24:09.479Z,74.57
2023-03-22T08:28:09.602Z,74.83
2023-03-22T08:32:09.723Z,88.92
2023-03-22T08:36:09.701Z,94.59
2023-03-22T08:40:09.824Z,87.66
2023-03-22T08:44:09.912Z,86.98
2023-03-22T08:48:10.189Z,79.93
2023-03-22T08:52:09.971Z,77.54
2023-03-22T08:56:10.054Z,87.75
2023-03-22T09:00:10.068Z,78.19
2023-03-22T09:04:10.802Z,72.72
2023-03-22T09:08:18.203Z,73.17
2023-03-22T09:12:11.031Z,68.72
2023-03-22T09:16:09.943Z,55.56
2023-03-22T09:20:13.102Z,56.81
2023-03-22T09:24:09.878Z,54.41
2023-03-22T09:28:09.944Z,42.97
2023-03-22T09:32:10.091Z,0.00
2023-03-22T09:36:09.738Z,23.33
2023-03-22T09:40:09.758Z,26.68
2023-03-22T09:44:09.685Z,71.06
2023-03-22T09:48:09.732Z,112.18
2023-03-22T09:52:09.661Z,157.29
2023-03-22T09:56:09.717Z,205.73
2023-03-22T10:00:09.548Z,228.18
2023-03-22T10:04:10.124Z,227.85
2023-03-22T10:08:09.509Z,201.94
2023-03-22T10:12:09.415Z,102.25
2023-03-22T10:16:09.444Z,56.88
2023-03-22T10:20:09.526Z,127.41
2023-03-22T10:24:09.374Z,142.68
2023-03-22T10:28:09.321Z,16.48
2023-03-22T10:32:09.360Z,103.50
2023-03-22T10:36:09.553Z,31.39
2023-03-22T10:40:09.440Z,101.71
2023-03-22T10:44:09.366Z,173.17
2023-03-22T10:48:09.386Z,237.49
2023-03-22T10:52:09.345Z,246.30
2023-03-22T10:56:09.261Z,250.00
2023-03-22T11:00:09.244Z,242.19
2023-03-22T11:04:09.226Z,238.22
2023-03-22T11:08:09.152Z,249.54
2023-03-22T11:12:09.110Z,236.26
2023-03-22T11:16:09.125Z,249.10
2023-03-22T11:20:09.099Z,246.77
2023-03-22T11:24:09.014Z,237.53
2023-03-22T11:28:09.076Z,224.41
2023-03-22T11:32:08.991Z,164.85
2023-03-22T11:36:09.188Z,183.70
2023-03-22T11:40:08.852Z,184.14
2023-03-22T11:44:08.815Z,195.39
2023-03-22T11:48:08.966Z,217.69
2023-03-22T11:52:08.772Z,228.17
2023-03-22T11:56:09.776Z,234.60
2023-03-22T12:00:08.765Z,214.42
2023-03-22T12:04:08.708Z,215.22
2023-03-22T12:08:08.842Z,216.61
2023-03-22T12:12:08.793Z,216.86
2023-03-22T12:16:08.801Z,227.89
2023-03-22T12:20:09.164Z,218.82
2023-03-22T12:24:09.137Z,149.93
2023-03-22T12:28:08.676Z,110.03
2023-03-22T12:32:08.638Z,109.34
2023-03-22T12:36:08.630Z,77.01
2023-03-22T12:40:08.593Z,20.22
2023-03-22T12:44:08.631Z,38.43
2023-03-22T12:48:08.517Z,67.77
2023-03-22T12:52:08.487Z,99.05
2023-03-22T12:56:08.459Z,99.72
2023-03-22T13:00:08.378Z,115.54
2023-03-22T13:04:08.589Z,116.68
2023-03-22T13:08:08.330Z,134.63
2023-03-22T13:12:08.294Z,145.29
2023-03-22T13:16:08.301Z,142.97
2023-03-22T13:20:08.222Z,151.29
2023-03-22T13:24:08.186Z,146.14
2023-03-22T13:28:08.143Z,154.41
2023-03-22T13:32:08.370Z,157.47
2023-03-22T13:36:08.350Z,166.52
2023-03-22T13:40:08.242Z,175.23
2023-03-22T13:44:08.231Z,176.42
2023-03-22T13:48:08.283Z,183.57
2023-03-22T13:52:08.203Z,197.57
2023-03-22T13:56:08.154Z,199.21
2023-03-22T14:00:12.167Z,222.28
2023-03-22T14:04:09.050Z,227.48
2023-03-22T14:08:08.001Z,232.93
2023-03-22T14:12:08.021Z,235.40
2023-03-22T14:16:08.114Z,238.45
2023-03-22T14:20:07.942Z,241.88
2023-03-22T14:49:08.206Z,25.00
2023-03-22T14:53:08.186Z,29.55
2023-03-22T14:57:08.152Z,31.68
2023-03-22T15:01:08.143Z,26.30
2023-03-22T15:05:08.045Z,28.82
2023-03-22T15:09:08.042Z,24.07
2023-03-22T15:13:08.003Z,36.53
2023-03-22T15:17:07.959Z,45.59
2023-03-22T15:21:07.989Z,32.68
2023-03-22T15:25:07.886Z,45.09
2023-03-22T15:29:07.913Z,36.12
2023-03-22T15:33:07.796Z,35.51
2023-03-22T15:37:07.857Z,31.92
2023-03-22T15:41:08.012Z,30.17
2023-03-22T15:45:08.229Z,46.67
2023-03-22T15:49:08.340Z,69.34
2023-03-22T15:53:08.516Z,102.20
2023-03-22T15:57:08.737Z,87.26
2023-03-22T16:01:08.818Z,76.64
2023-03-22T16:05:08.937Z,62.63
2023-03-22T16:09:09.121Z,63.30
2023-03-22T16:13:09.139Z,62.46
2023-03-22T16:17:09.076Z,57.15
2023-03-22T16:21:09.043Z,53.23
2023-03-22T16:25:09.449Z,51.43
2023-03-22T16:29:08.960Z,46.60
2023-03-22T16:33:08.947Z,44.66
2023-03-22T16:37:08.950Z,40.02
2023-03-22T16:41:08.881Z,33.13
2023-03-22T16:45:08.867Z,33.53
2023-03-22T16:49:08.779Z,31.32
2023-03-22T16:53:08.849Z,27.01
2023-03-22T16:57:08.746Z,29.91
2023-03-22T17:01:08.714Z,31.10
2023-03-22T17:05:08.694Z,37.32
2023-03-22T17:09:08.633Z,48.37
2023-03-22T17:13:08.587Z,61.25
2023-03-22T17:17:08.591Z,56.85
2023-03-22T17:21:08.794Z,58.92
2023-03-22T17:25:08.798Z,48.77
2023-03-22T17:29:08.762Z,37.36
2023-03-22T17:33:09.650Z,60.17
2023-03-22T17:37:08.674Z,49.63
2023-03-22T17:41:08.934Z,32.76
2023-03-22T17:45:08.677Z,46.46
2023-03-22T17:49:08.577Z,42.86
2023-03-22T17:53:20.864Z,60.66
2023-03-22T17:57:36.388Z,80.03
2023-03-22T18:01:09.723Z,85.26
2023-03-22T18:05:08.662Z,96.80
2023-03-22T18:09:08.585Z,96.49
2023-03-22T18:13:08.534Z,95.54
2023-03-22T18:17:08.561Z,93.13
2023-03-22T18:21:08.508Z,82.73
2023-03-22T18:25:08.417Z,76.74
2023-03-22T18:29:08.361Z,81.10
2023-03-22T18:33:08.378Z,63.97
2023-03-22T18:37:08.510Z,69.19
2023-03-22T18:41:32.001Z,90.26
2023-03-22T18:45:10.423Z,127.33
2023-03-22T18:49:08.368Z,145.85
2023-03-22T18:53:18.166Z,138.60
2023-03-22T18:57:10.750Z,128.36
2023-03-22T19:01:08.443Z,121.68
2023-03-22T19:05:08.468Z,115.13
2023-03-22T19:09:08.550Z,93.44
2023-03-22T19:13:08.553Z,77.71
2023-03-22T19:17:08.569Z,70.95
2023-03-22T19:21:13.405Z,69.46
2023-03-22T19:25:09.622Z,84.33
2023-03-22T19:29:08.548Z,114.39
2023-03-22T19:33:27.665Z,117.20
2023-03-22T19:37:09.528Z,119.75
2023-03-22T19:41:40.708Z,138.94
2023-03-22T19:45:09.566Z,133.35
2023-03-22T19:49:08.427Z,141.43
2023-03-22T19:53:42.536Z,140.14
2023-03-22T19:57:09.343Z,146.48
2023-03-22T20:01:08.269Z,149.72
2023-03-22T20:05:16.262Z,154.46
2023-03-22T20:09:09.211Z,161.07
2023-03-22T20:13:08.555Z,162.14
2023-03-22T20:17:10.546Z,163.20
2023-03-22T20:21:08.126Z,162.71
2023-03-22T20:25:08.609Z,168.60
2023-03-22T20:29:08.019Z,173.00
2023-03-22T20:33:08.048Z,177.71
2023-03-22T20:37:07.979Z,183.22
2023-03-22T20:41:07.943Z,184.37
2023-03-22T20:45:07.919Z,188.68
2023-03-22T20:49:07.840Z,188.11
2023-03-22T20:53:07.815Z,191.43
2023-03-22T20:57:07.790Z,191.13
2023-03-22T21:01:07.846Z,191.45
2023-03-22T21:05:07.997Z,192.70
2023-03-22T21:09:07.874Z,193.70
2023-03-22T21:13:07.850Z,190.81
2023-03-22T21:17:07.865Z,195.37
2023-03-22T21:21:07.854Z,194.33
2023-03-22T21:25:07.890Z,196.03
2023-03-22T21:29:07.906Z,193.67
2023-03-22T21:33:07.876Z,194.14
2023-03-22T21:37:07.935Z,192.89
2023-03-22T21:41:07.943Z,193.69
2023-03-22T21:45:07.915Z,193.70
2023-03-22T21:49:07.961Z,191.69
2023-03-22T21:53:07.968Z,190.92
2023-03-22T21:57:07.994Z,189.59
2023-03-22T22:01:08.032Z,187.60
2023-03-22T22:05:08.132Z,186.37
2023-03-22T22:09:08.138Z,184.34
2023-03-22T22:13:08.141Z,184.54
2023-03-22T22:17:08.606Z,188.29
2023-03-22T22:21:08.250Z,182.70
2023-03-22T22:25:08.295Z,186.07
2023-03-22T22:29:08.319Z,182.94
2023-03-22T22:33:08.382Z,187.86
2023-03-22T22:37:08.383Z,186.83
2023-03-22T22:41:08.466Z,187.79
2023-03-22T22:45:08.466Z,183.53
2023-03-22T22:49:08.514Z,183.42
2023-03-22T22:53:08.587Z,181.23
2023-03-22T22:57:08.623Z,185.57
2023-03-22T23:01:08.652Z,184.60
2023-03-22T23:05:08.652Z,184.56
2023-03-22T23:09:08.723Z,184.65
2023-03-22T23:13:08.863Z,184.97
2023-03-22T23:17:08.858Z,183.13
2023-03-22T23:21:08.877Z,179.31
2023-03-22T23:25:08.935Z,183.38
2023-03-22T23:29:09.027Z,182.79
2023-03-22T23:33:09.170Z,178.93
2023-03-22T23:37:09.179Z,177.58
2023-03-22T23:41:09.261Z,178.71
2023-03-22T23:45:09.350Z,176.39
2023-03-22T23:49:09.275Z,177.12
2023-03-22T23:53:09.224Z,178.35
2023-03-22T23:57:09.225Z,173.04
